Time;durP1;ratioP1;P1;durP2;ratioP2;P2;SDS_P1;SDS_P2;PMS_P1;PMS_P2;Temp;Humidity;BMP_temperature;BMP_pressure;BME280_temperature;BME280_humidity;BME280_pressure;Samples;Min_cycle;Max_cycle;Signal;HPM_P1;HPM_P2
2021/09/05 00:02:24;;;;;;;8.15;5.05;;;;;;;-142.25;100.00;58004.16;5053988;28;20041;-60
2021/09/05 00:04:51;;;;;;;6.55;4.85;;;;;;;-142.25;100.00;58004.16;5052947;28;20064;-62
2021/09/05 00:07:16;;;;;;;5.75;4.82;;;;;;;-142.25;100.00;58004.16;5054115;28;20465;-63
2021/09/05 00:09:42;;;;;;;5.85;5.10;;;;;;;-142.25;100.00;58004.16;5053514;28;20135;-61
2021/09/05 00:12:07;;;;;;;7.95;5.60;;;;;;;-142.25;100.00;58004.16;5056074;28;20031;-60
2021/09/05 00:14:33;;;;;;;6.47;5.10;;;;;;;-142.25;100.00;58004.16;5051873;28;20043;-63
2021/09/05 00:16:59;;;;;;;5.88;5.07;;;;;;;-142.25;100.00;58004.16;5054350;28;20044;-60
2021/09/05 00:19:24;;;;;;;6.55;4.85;;;;;;;-142.25;100.00;58004.16;5054157;28;20040;-62
2021/09/05 00:21:49;;;;;;;5.68;5.07;;;;;;;-142.25;100.00;58004.16;5056272;28;20388;-62
2021/09/05 00:24:15;;;;;;;6.65;5.22;;;;;;;-142.25;100.00;58004.16;5052814;28;20517;-61
2021/09/05 00:26:40;;;;;;;6.90;5.70;;;;;;;-142.25;100.00;58004.16;5054618;28;20021;-62
2021/09/05 00:29:06;;;;;;;6.20;4.70;;;;;;;-142.25;100.00;58004.16;5053853;28;20031;-60
2021/09/05 00:31:31;;;;;;;5.72;4.63;;;;;;;-142.25;100.00;58004.16;5053774;28;20488;-61
2021/09/05 00:34:00;;;;;;;9.30;5.70;;;;;;;-142.25;100.00;58004.16;5054677;28;20048;-60
2021/09/05 00:36:26;;;;;;;7.65;5.50;;;;;;;-142.25;100.00;58004.16;5060856;28;20036;-61
2021/09/05 00:38:52;;;;;;;6.28;5.13;;;;;;;-142.25;100.00;58004.16;5065211;28;20071;-62
2021/09/05 00:41:17;;;;;;;5.88;4.95;;;;;;;-142.25;100.00;58004.16;5064342;28;20136;-62
2021/09/05 00:43:54;;;;;;;5.90;5.30;;;;;;;-142.25;100.00;58004.16;5063154;28;20044;-61
2021/09/05 00:46:19;;;;;;;6.57;5.32;;;;;;;-142.25;100.00;58004.16;5052563;28;20087;-61
2021/09/05 00:48:45;;;;;;;5.70;4.88;;;;;;;-142.25;100.00;58004.16;5053963;28;20037;-59
2021/09/05 00:51:10;;;;;;;7.30;5.43;;;;;;;-142.25;100.00;58004.16;5052831;28;20127;-62
2021/09/05 00:53:36;;;;;;;6.60;5.15;;;;;;;-142.25;100.00;58004.16;5052896;28;20043;-59
2021/09/05 00:56:01;;;;;;;5.90;4.80;;;;;;;-142.25;100.00;58004.16;5052530;28;20067;-60
2021/09/05 00:58:28;;;;;;;5.65;5.15;;;;;;;-142.25;100.00;58004.16;5052935;28;20464;-60
2021/09/05 01:00:53;;;;;;;5.95;5.15;;;;;;;-142.25;100.00;58004.16;5054187;28;20059;-58
2021/09/05 01:03:18;;;;;;;6.38;4.63;;;;;;;-142.25;100.00;58004.16;5051655;28;20481;-57
2021/09/05 01:05:44;;;;;;;4.78;4.25;;;;;;;-142.25;100.00;58004.16;5051042;28;20445;-61
2021/09/05 01:08:09;;;;;;;7.40;5.35;;;;;;;-142.25;100.00;58004.16;5053387;28;20064;-56
2021/09/05 01:10:35;;;;;;;8.40;5.15;;;;;;;-142.25;100.00;58004.16;5052666;28;20033;-62
2021/09/05 01:13:01;;;;;;;7.18;4.88;;;;;;;-142.25;100.00;58004.16;5053521;28;20044;-59
2021/09/05 01:15:27;;;;;;;5.68;5.05;;;;;;;-142.25;100.00;58004.16;5052453;28;20454;-59
2021/09/05 01:17:52;;;;;;;6.30;5.55;;;;;;;-142.25;100.00;58004.16;5052233;28;20064;-63
2021/09/05 01:20:18;;;;;;;8.23;5.82;;;;;;;-142.25;100.00;58004.16;5054362;28;20078;-57
2021/09/05 01:22:43;;;;;;;9.55;5.00;;;;;;;-142.25;100.00;58004.16;5052905;28;20075;-62
2021/09/05 01:25:09;;;;;;;8.07;5.18;;;;;;;-142.25;100.00;58004.16;5052396;28;20032;-61
2021/09/05 01:27:34;;;;;;;5.70;5.10;;;;;;;-142.25;100.00;58004.16;5051938;28;20404;-61
2021/09/05 01:30:00;;;;;;;6.47;5.35;;;;;;;-142.25;100.00;58004.16;5052659;28;20031;-60
2021/09/05 01:32:25;;;;;;;8.20;5.50;;;;;;;-142.25;100.00;58004.16;5050861;28;20032;-61
2021/09/05 01:34:51;;;;;;;8.07;5.82;;;;;;;-142.25;100.00;58004.16;5052202;28;20037;-61
2021/09/05 01:37:16;;;;;;;5.55;4.80;;;;;;;-142.25;100.00;58004.16;5054017;28;20387;-60
2021/09/05 01:39:42;;;;;;;7.00;5.57;;;;;;;-142.25;100.00;58004.16;5067762;28;20065;-62
2021/09/05 01:42:07;;;;;;;7.85;5.68;;;;;;;-142.25;100.00;58004.16;5054226;28;20532;-57
2021/09/05 01:44:33;;;;;;;6.10;4.90;;;;;;;-142.25;100.00;58004.16;5051775;28;20531;-61
2021/09/05 01:46:58;;;;;;;8.75;6.03;;;;;;;-142.25;100.00;58004.16;5051505;28;20032;-61
2021/09/05 01:49:23;;;;;;;6.05;4.80;;;;;;;-142.25;100.00;58004.16;5053026;28;20688;-60
2021/09/05 01:51:49;;;;;;;6.03;5.05;;;;;;;-142.25;100.00;58004.16;5068734;28;20029;-59
2021/09/05 01:54:14;;;;;;;7.13;5.55;;;;;;;-142.25;100.00;58004.16;5049747;28;20090;-61
2021/09/05 01:56:40;;;;;;;8.10;4.80;;;;;;;-142.25;100.00;58004.16;5051688;28;20037;-61
2021/09/05 01:59:05;;;;;;;5.53;4.57;;;;;;;-142.25;100.00;58004.16;5051840;28;20458;-63
2021/09/05 02:01:32;;;;;;;5.78;4.90;;;;;;;-142.25;100.00;58004.16;5051750;28;20468;-61
2021/09/05 02:03:59;;;;;;;5.70;5.10;;;;;;;-142.25;100.00;58004.16;5048839;28;20083;-62
2021/09/05 02:06:26;;;;;;;6.80;5.75;;;;;;;-142.25;100.00;58004.16;5051568;28;20064;-59
2021/09/05 02:08:52;;;;;;;6.55;4.47;;;;;;;-142.25;100.00;58004.16;5050286;28;20037;-60
2021/09/05 02:11:17;;;;;;;9.10;5.38;;;;;;;-142.25;100.00;58004.16;5051384;28;20520;-61
2021/09/05 02:13:43;;;;;;;7.93;5.65;;;;;;;-142.25;100.00;58004.16;5053283;28;20075;-61
2021/09/05 02:16:08;;;;;;;7.90;5.15;;;;;;;-142.25;100.00;58004.16;5050825;28;20074;-61
2021/09/05 02:18:34;;;;;;;7.18;5.35;;;;;;;-142.25;100.00;58004.16;5053679;28;20090;-60
2021/09/05 02:20:59;;;;;;;5.82;4.72;;;;;;;-142.25;100.00;58004.16;5053034;28;20382;-58
2021/09/05 02:23:24;;;;;;;6.15;4.88;;;;;;;-142.25;100.00;58004.16;5052114;28;20044;-61
2021/09/05 02:25:50;;;;;;;8.75;5.30;;;;;;;-142.25;100.00;58004.16;5050390;28;20076;-59
2021/09/05 02:28:16;;;;;;;6.85;5.15;;;;;;;-142.25;100.00;58004.16;5051424;28;20086;-60
2021/09/05 02:30:41;;;;;;;7.18;5.13;;;;;;;-142.25;100.00;58004.16;5052855;28;20037;-59
2021/09/05 02:33:06;;;;;;;6.72;4.75;;;;;;;-142.25;100.00;58004.16;5051847;28;20114;-59
2021/09/05 02:35:32;;;;;;;5.97;4.55;;;;;;;-142.25;100.00;58004.16;5067003;28;20039;-60
2021/09/05 02:37:58;;;;;;;8.57;5.18;;;;;;;-142.25;100.00;58004.16;5052425;28;20532;-60
2021/09/05 02:40:23;;;;;;;6.50;5.18;;;;;;;-142.25;100.00;58004.16;5053742;28;20040;-61
2021/09/05 02:42:49;;;;;;;7.67;5.50;;;;;;;-142.25;100.00;58004.16;5054068;28;20044;-61
2021/09/05 02:45:15;;;;;;;6.37;5.23;;;;;;;-142.25;100.00;58004.16;5056316;28;20033;-61
2021/09/05 02:47:40;;;;;;;7.15;5.45;;;;;;;-142.25;100.00;58004.16;5056088;28;20075;-59
2021/09/05 02:50:06;;;;;;;6.82;5.05;;;;;;;-142.25;100.00;58004.16;5055849;28;20068;-60
2021/09/05 02:52:32;;;;;;;6.40;5.32;;;;;;;-142.25;100.00;58004.16;5055595;28;20072;-61
2021/09/05 02:54:57;;;;;;;7.47;5.03;;;;;;;-142.25;100.00;58004.16;5056541;28;20460;-60
2021/09/05 02:57:22;;;;;;;6.72;4.97;;;;;;;-142.25;100.00;58004.16;5054969;28;20051;-60
2021/09/05 02:59:48;;;;;;;6.03;5.35;;;;;;;-142.25;100.00;58004.16;5055872;28;20444;-58
2021/09/05 03:02:13;;;;;;;7.22;5.32;;;;;;;-142.25;100.00;58004.16;5055091;28;20029;-57
2021/09/05 03:04:39;;;;;;;6.57;5.35;;;;;;;-142.25;100.00;58004.16;5050559;28;20401;-58
2021/09/05 03:07:04;;;;;;;5.82;3.95;;;;;;;-142.25;100.00;58004.16;5054538;28;20488;-59
2021/09/05 03:09:30;;;;;;;6.40;4.97;;;;;;;-142.25;100.00;58004.16;5057592;28;20035;-62
2021/09/05 03:11:55;;;;;;;5.20;4.40;;;;;;;-142.25;100.00;58004.16;5054177;28;20389;-59
2021/09/05 03:14:21;;;;;;;5.53;4.63;;;;;;;-142.25;100.00;58004.16;5054410;28;20062;-62
2021/09/05 03:16:46;;;;;;;4.90;4.10;;;;;;;-142.25;100.00;58004.16;5056622;28;20067;-63
2021/09/05 03:19:12;;;;;;;5.78;4.82;;;;;;;-142.25;100.00;58004.16;5054715;28;20056;-60
2021/09/05 03:21:38;;;;;;;6.95;4.63;;;;;;;-142.25;100.00;58004.16;5053668;28;20531;-59
2021/09/05 03:24:04;;;;;;;6.38;4.88;;;;;;;-142.25;100.00;58004.16;5054499;28;20033;-59
2021/09/05 03:26:31;;;;;;;6.20;5.15;;;;;;;-142.25;100.00;58004.16;5053538;28;20043;-59
2021/09/05 03:28:57;;;;;;;7.15;5.25;;;;;;;-142.25;100.00;58004.16;5059185;28;20032;-64
2021/09/05 03:31:22;;;;;;;6.85;5.35;;;;;;;-142.25;100.00;58004.16;5056732;28;20040;-60
2021/09/05 03:33:47;;;;;;;7.18;5.13;;;;;;;-142.25;100.00;58004.16;5054741;28;20502;-60
2021/09/05 03:36:13;;;;;;;5.97;4.45;;;;;;;-142.25;100.00;58004.16;5055884;28;20056;-62
2021/09/05 03:38:38;;;;;;;6.35;5.53;;;;;;;-142.25;100.00;58004.16;5054498;28;20098;-60
2021/09/05 03:41:04;;;;;;;8.98;5.40;;;;;;;-142.25;100.00;58004.16;5052595;28;20032;-61
2021/09/05 03:43:29;;;;;;;7.00;5.30;;;;;;;-142.25;100.00;58004.16;5054553;28;20033;-60
2021/09/05 03:45:55;;;;;;;6.90;5.72;;;;;;;-142.25;100.00;58004.16;5056494;28;20028;-61
2021/09/05 03:48:20;;;;;;;7.30;5.05;;;;;;;-142.25;100.00;58004.16;5055731;28;20377;-61
2021/09/05 03:50:45;;;;;;;7.45;5.25;;;;;;;-142.25;100.00;58004.16;5053267;28;20054;-59
2021/09/05 03:53:11;;;;;;;8.00;5.50;;;;;;;-142.25;100.00;58004.16;5055745;28;20032;-60
2021/09/05 03:55:37;;;;;;;6.63;4.78;;;;;;;-142.25;100.00;58004.16;5054311;28;20467;-60
2021/09/05 03:58:02;;;;;;;6.60;5.17;;;;;;;-142.25;100.00;58004.16;5054580;28;20111;-58
2021/09/05 04:00:28;;;;;;;6.87;5.53;;;;;;;-142.25;100.00;58004.16;5051567;28;20025;-60
2021/09/05 04:02:53;;;;;;;6.50;4.73;;;;;;;-142.25;100.00;58004.16;5039829;28;20091;-60
2021/09/05 04:05:19;;;;;;;6.23;4.93;;;;;;;-142.25;100.00;58004.16;5053710;28;20037;-62
2021/09/05 04:08:01;;;;;;;7.60;5.60;;;;;;;-142.25;100.00;58004.16;5055050;28;20566;-60
2021/09/05 04:10:27;;;;;;;6.20;5.20;;;;;;;-142.25;100.00;58004.16;5053778;28;20487;-60
2021/09/05 04:12:52;;;;;;;8.25;5.80;;;;;;;-142.25;100.00;58004.16;5055226;28;20060;-62
2021/09/05 04:15:18;;;;;;;7.18;5.22;;;;;;;-142.25;100.00;58004.16;5052886;28;20126;-57
2021/09/05 04:17:43;;;;;;;7.47;5.90;;;;;;;-142.25;100.00;58004.16;5055138;28;20044;-60
2021/09/05 04:20:09;;;;;;;7.70;4.93;;;;;;;-142.25;100.00;58004.16;5053204;28;20032;-62
2021/09/05 04:22:35;;;;;;;6.57;4.90;;;;;;;-142.25;100.00;58004.16;5053097;28;20068;-63
2021/09/05 04:25:01;;;;;;;6.23;4.80;;;;;;;-142.25;100.00;58004.16;5054136;28;20040;-60
2021/09/05 04:27:26;;;;;;;6.30;5.43;;;;;;;-142.25;100.00;58004.16;5052896;28;20033;-61
2021/09/05 04:29:52;;;;;;;6.00;5.40;;;;;;;-142.25;100.00;58004.16;5054414;28;20417;-58
2021/09/05 04:32:20;;;;;;;6.53;4.60;;;;;;;-142.25;100.00;58004.16;5054031;28;20067;-60
2021/09/05 04:34:45;;;;;;;7.60;4.80;;;;;;;-142.25;100.00;58004.16;5053573;28;20101;-62
2021/09/05 04:37:10;;;;;;;7.07;4.97;;;;;;;-142.25;100.00;58004.16;5054894;28;20449;-60
2021/09/05 04:39:36;;;;;;;7.60;5.53;;;;;;;-142.25;100.00;58004.16;5052376;28;20472;-60
2021/09/05 04:42:01;;;;;;;8.80;5.60;;;;;;;-142.25;100.00;58004.16;5054077;28;20293;-62
2021/09/05 04:44:27;;;;;;;9.45;5.55;;;;;;;-142.25;100.00;58004.16;5039283;28;20037;-59
2021/09/05 04:46:52;;;;;;;8.07;4.70;;;;;;;-142.25;100.00;58004.16;5037813;28;20605;-60
2021/09/05 04:49:18;;;;;;;6.90;4.87;;;;;;;-142.25;100.00;58004.16;5054310;28;20083;-63
2021/09/05 04:51:43;;;;;;;5.72;4.43;;;;;;;-142.25;100.00;58004.16;5054281;28;20039;-61
2021/09/05 04:54:08;;;;;;;5.68;5.03;;;;;;;-142.25;100.00;58004.16;5053057;28;20564;-61
2021/09/05 04:56:34;;;;;;;8.90;4.63;;;;;;;-142.25;100.00;58004.16;5053208;28;20028;-58
2021/09/05 04:58:59;;;;;;;6.47;5.28;;;;;;;-142.25;100.00;58004.16;5053023;28;20029;-60
2021/09/05 05:01:25;;;;;;;7.05;5.65;;;;;;;-142.25;100.00;58004.16;5052842;28;20037;-61
2021/09/05 05:03:50;;;;;;;6.53;4.88;;;;;;;-142.25;100.00;58004.16;5057470;28;20113;-61
2021/09/05 05:06:16;;;;;;;8.57;6.35;;;;;;;-142.25;100.00;58004.16;5058307;28;20044;-61
2021/09/05 05:08:41;;;;;;;6.03;5.00;;;;;;;-142.25;100.00;58004.16;5057064;28;20024;-62
2021/09/05 05:11:12;;;;;;;5.97;5.00;;;;;;;-142.25;100.00;58004.16;5052246;28;20499;-61
2021/09/05 05:13:37;;;;;;;5.82;4.53;;;;;;;-142.25;100.00;58004.16;5054843;28;20029;-61
2021/09/05 05:16:03;;;;;;;7.47;4.38;;;;;;;-142.25;100.00;58004.16;5052983;28;20314;-60
2021/09/05 05:18:28;;;;;;;5.95;4.97;;;;;;;-142.25;100.00;58004.16;5053227;28;20529;-60
2021/09/05 05:20:53;;;;;;;7.50;5.25;;;;;;;-142.25;100.00;58004.16;5051261;28;20051;-62
2021/09/05 05:23:19;;;;;;;6.75;5.55;;;;;;;-142.25;100.00;58004.16;5053536;28;20029;-60
2021/09/05 05:25:44;;;;;;;6.80;5.38;;;;;;;-142.25;100.00;58004.16;5053702;28;20040;-58
2021/09/05 05:28:10;;;;;;;6.72;5.68;;;;;;;-142.25;100.00;58004.16;5054589;28;20056;-60
2021/09/05 05:30:35;;;;;;;6.72;5.40;;;;;;;-142.25;100.00;58004.16;5051623;28;20033;-58
2021/09/05 05:33:01;;;;;;;6.93;5.57;;;;;;;-142.25;100.00;58004.16;5051183;28;20033;-59
2021/09/05 05:35:27;;;;;;;8.43;5.55;;;;;;;-142.25;100.00;58004.16;5054308;28;20037;-60
2021/09/05 05:37:52;;;;;;;6.00;4.28;;;;;;;-142.25;100.00;58004.16;5053148;28;20074;-59
2021/09/05 05:40:22;;;;;;;5.95;5.30;;;;;;;-142.25;100.00;58004.16;5052788;28;20031;-58
2021/09/05 05:42:49;;;;;;;6.03;4.88;;;;;;;-142.25;100.00;58004.16;5052161;28;20049;-60
2021/09/05 05:45:17;;;;;;;5.55;4.70;;;;;;;-142.25;100.00;58004.16;5052721;28;20025;-61
2021/09/05 05:47:43;;;;;;;8.38;5.72;;;;;;;-142.25;100.00;58004.16;5053843;28;20447;-61
2021/09/05 05:50:09;;;;;;;6.38;5.35;;;;;;;-142.25;100.00;58004.16;5051781;28;20067;-58
2021/09/05 05:52:34;;;;;;;9.23;6.03;;;;;;;-142.25;100.00;58004.16;5052636;28;20119;-59
2021/09/05 05:54:59;;;;;;;5.78;5.18;;;;;;;-142.25;100.00;58004.16;5051712;28;20391;-61
2021/09/05 05:57:25;;;;;;;6.22;5.07;;;;;;;-142.25;100.00;58004.16;5051271;28;20024;-60
2021/09/05 05:59:51;;;;;;;5.20;4.70;;;;;;;-142.25;100.00;58004.16;5052476;28;20417;-61
2021/09/05 06:02:18;;;;;;;8.82;5.80;;;;;;;-142.25;100.00;58004.16;5052902;28;20029;-59
2021/09/05 06:04:43;;;;;;;6.70;5.15;;;;;;;-142.25;100.00;58004.16;5051953;28;20350;-63
2021/09/05 06:07:09;;;;;;;5.25;4.75;;;;;;;-142.25;100.00;58004.16;5052711;28;20055;-59
2021/09/05 06:09:34;;;;;;;5.95;4.82;;;;;;;-142.25;100.00;58004.16;5052678;28;20056;-63
2021/09/05 06:11:59;;;;;;;6.63;4.93;;;;;;;-142.25;100.00;58004.16;5050279;28;20025;-61
2021/09/05 06:14:25;;;;;;;6.47;4.45;;;;;;;-142.25;100.00;58004.16;5054407;28;20466;-59
2021/09/05 06:16:51;;;;;;;7.10;4.93;;;;;;;-142.25;100.00;58004.16;5055151;28;20040;-60
2021/09/05 06:19:17;;;;;;;6.10;5.00;;;;;;;-142.25;100.00;58004.16;5058240;28;20028;-59
2021/09/05 06:21:42;;;;;;;9.02;4.85;;;;;;;-142.25;100.00;58004.16;5055682;28;20036;-59
2021/09/05 06:24:07;;;;;;;7.68;5.07;;;;;;;-142.25;100.00;58004.16;5055843;28;20041;-61
2021/09/05 06:26:33;;;;;;;7.57;5.30;;;;;;;-142.25;100.00;58004.16;5055423;28;20036;-62
2021/09/05 06:28:58;;;;;;;7.28;5.40;;;;;;;-142.25;100.00;58004.16;5054999;28;20037;-63
2021/09/05 06:31:23;;;;;;;5.63;4.75;;;;;;;-142.25;100.00;58004.16;5056140;28;20036;-60
2021/09/05 06:33:49;;;;;;;5.53;5.03;;;;;;;-142.25;100.00;58004.16;5055709;28;20068;-64
2021/09/05 06:36:14;;;;;;;6.75;4.72;;;;;;;-142.25;100.00;58004.16;5057766;28;20048;-63
2021/09/05 06:38:40;;;;;;;7.18;4.95;;;;;;;-142.25;100.00;58004.16;5056156;28;20100;-61
2021/09/05 06:41:05;;;;;;;6.18;5.18;;;;;;;-142.25;100.00;58004.16;5055450;28;20041;-59
2021/09/05 06:43:30;;;;;;;8.50;6.95;;;;;;;-142.25;100.00;58004.16;5055860;28;20029;-60
2021/09/05 06:45:56;;;;;;;10.88;6.18;;;;;;;-142.25;100.00;58004.16;5056315;28;20055;-58
2021/09/05 06:48:21;;;;;;;6.05;5.38;;;;;;;-142.25;100.00;58004.16;5055209;28;20025;-61
2021/09/05 06:50:47;;;;;;;7.03;5.13;;;;;;;-142.25;100.00;58004.16;5054995;28;20033;-60
2021/09/05 06:53:12;;;;;;;8.02;5.63;;;;;;;-142.25;100.00;58004.16;5055152;28;20095;-61
2021/09/05 06:55:38;;;;;;;9.77;7.22;;;;;;;-142.25;100.00;58004.16;5054019;28;20387;-61
2021/09/05 06:58:03;;;;;;;9.38;8.38;;;;;;;-142.25;100.00;58004.16;5053906;28;20075;-60
2021/09/05 07:00:28;;;;;;;10.23;8.88;;;;;;;-142.25;100.00;58004.16;5056308;28;20987;-60
2021/09/05 07:02:54;;;;;;;10.45;8.85;;;;;;;-142.25;100.00;58004.16;5057386;28;20041;-58
2021/09/05 07:05:19;;;;;;;11.00;8.52;;;;;;;-142.25;100.00;58004.16;5056767;28;20606;-63
2021/09/05 07:07:45;;;;;;;9.73;7.90;;;;;;;-142.25;100.00;58004.16;5054744;28;20040;-59
2021/09/05 07:10:11;;;;;;;11.77;8.55;;;;;;;-142.25;100.00;58004.16;5053751;28;20036;-60
2021/09/05 07:12:36;;;;;;;11.85;9.18;;;;;;;-142.25;100.00;58004.16;5057943;28;20025;-60
2021/09/05 07:15:01;;;;;;;12.68;9.18;;;;;;;-142.25;100.00;58004.16;5055701;28;20060;-60
2021/09/05 07:17:27;;;;;;;11.10;9.38;;;;;;;-142.25;100.00;58004.16;5057968;28;20025;-61
2021/09/05 07:19:54;;;;;;;12.00;10.50;;;;;;;-142.25;100.00;58004.16;5056098;28;20116;-60
2021/09/05 07:22:19;;;;;;;15.00;9.63;;;;;;;-142.25;100.00;58004.16;5053896;28;20063;-61
2021/09/05 07:24:45;;;;;;;11.55;9.77;;;;;;;-142.25;100.00;58004.16;5054770;28;20040;-60
2021/09/05 07:27:10;;;;;;;11.45;9.35;;;;;;;-142.25;100.00;58004.16;5052834;28;20090;-61
2021/09/05 07:29:36;;;;;;;11.60;9.57;;;;;;;-142.25;100.00;58004.16;5055996;28;20139;-63
2021/09/05 07:32:01;;;;;;;14.57;9.40;;;;;;;-142.25;100.00;58004.16;5054548;28;20495;-64
2021/09/05 07:34:27;;;;;;;12.07;8.75;;;;;;;-142.25;100.00;58004.16;5055734;28;20102;-63
2021/09/05 07:36:52;;;;;;;14.20;9.85;;;;;;;-142.25;100.00;58004.16;5052690;28;20996;-63
2021/09/05 07:39:18;;;;;;;12.32;9.60;;;;;;;-142.25;100.00;58004.16;5053058;28;20032;-66
2021/09/05 07:41:43;;;;;;;11.90;9.48;;;;;;;-142.25;100.00;58004.16;5052929;28;20036;-60
2021/09/05 07:44:08;;;;;;;12.88;8.68;;;;;;;-142.25;100.00;58004.16;5053823;28;20040;-62
2021/09/05 07:46:34;;;;;;;12.98;9.52;;;;;;;-142.25;100.00;58004.16;5055642;28;20440;-62
2021/09/05 07:48:59;;;;;;;10.98;8.93;;;;;;;-142.25;100.00;58004.16;5052932;28;20025;-60
2021/09/05 07:51:25;;;;;;;12.85;9.13;;;;;;;-142.25;100.00;58004.16;5055961;28;20566;-64
2021/09/05 07:53:51;;;;;;;12.25;10.32;;;;;;;-142.25;100.00;58004.16;5052952;28;20033;-63
2021/09/05 07:56:17;;;;;;;11.70;9.52;;;;;;;-142.25;100.00;58004.16;5053718;28;20037;-60
2021/09/05 07:58:43;;;;;;;10.63;9.52;;;;;;;-142.25;100.00;58004.16;5054416;28;20522;-59
2021/09/05 08:01:08;;;;;;;12.25;8.95;;;;;;;-142.25;100.00;58004.16;5055031;28;20128;-60
2021/09/05 08:03:38;;;;;;;10.68;8.85;;;;;;;-142.25;100.00;58004.16;5054773;28;20064;-63
2021/09/05 08:06:03;;;;;;;10.50;9.35;;;;;;;-142.25;100.00;58004.16;5038796;28;20044;-62
2021/09/05 08:08:29;;;;;;;15.40;9.98;;;;;;;-142.25;100.00;58004.16;5054482;28;20040;-59
2021/09/05 08:10:54;;;;;;;14.35;8.85;;;;;;;-142.25;100.00;58004.16;5035145;28;20033;-63
2021/09/05 08:13:20;;;;;;;12.05;9.32;;;;;;;-142.25;100.00;58004.16;5053783;28;20032;-59
2021/09/05 08:15:45;;;;;;;10.73;8.38;;;;;;;-142.25;100.00;58004.16;5053804;28;20048;-64
2021/09/05 08:18:11;;;;;;;11.52;9.05;;;;;;;-142.25;100.00;58004.16;5055025;28;20020;-62
2021/09/05 08:20:36;;;;;;;10.50;8.00;;;;;;;-142.25;100.00;58004.16;5054627;28;20448;-61
2021/09/05 08:23:02;;;;;;;9.40;8.45;;;;;;;-142.25;100.00;58004.16;5054939;28;20126;-60
2021/09/05 08:25:27;;;;;;;12.10;8.10;;;;;;;-142.25;100.00;58004.16;5054255;28;20484;-62
2021/09/05 08:27:52;;;;;;;12.63;9.70;;;;;;;-142.25;100.00;58004.16;5053696;28;20078;-60
2021/09/05 08:30:18;;;;;;;13.43;8.88;;;;;;;-142.25;100.00;58004.16;5055725;28;20343;-63
2021/09/05 08:32:43;;;;;;;10.02;8.35;;;;;;;-142.25;100.00;58004.16;5053325;28;20474;-57
2021/09/05 08:35:09;;;;;;;9.15;8.18;;;;;;;-142.25;100.00;58004.16;5053732;28;20505;-60
2021/09/05 08:37:34;;;;;;;9.25;8.18;;;;;;;-142.25;100.00;58004.16;5052644;28;20033;-61
2021/09/05 08:40:00;;;;;;;10.18;7.88;;;;;;;-142.25;100.00;58004.16;5053324;28;20039;-62
2021/09/05 08:42:27;;;;;;;9.10;7.95;;;;;;;-142.25;100.00;58004.16;5052735;28;20397;-61
2021/09/05 08:44:53;;;;;;;10.50;8.95;;;;;;;-142.25;100.00;58004.16;5052025;28;20385;-62
2021/09/05 08:47:20;;;;;;;11.32;8.60;;;;;;;-142.25;100.00;58004.16;5053893;28;20048;-59
2021/09/05 08:49:47;;;;;;;9.40;8.32;;;;;;;-142.25;100.00;58004.16;5051125;28;20043;-63
2021/09/05 08:52:13;;;;;;;10.07;8.60;;;;;;;-142.25;100.00;58004.16;5052016;28;20065;-60
2021/09/05 08:54:38;;;;;;;11.50;10.30;;;;;;;-142.25;100.00;58004.16;5052936;28;20522;-61
2021/09/05 08:57:05;;;;;;;9.82;8.82;;;;;;;-142.25;100.00;58004.16;5052446;28;20025;-62
2021/09/05 08:59:30;;;;;;;8.93;7.97;;;;;;;-142.25;100.00;58004.16;5052126;28;20695;-63
2021/09/05 09:02:02;;;;;;;12.65;8.60;;;;;;;-142.25;100.00;58004.16;5051426;28;20047;-60
2021/09/05 09:04:42;;;;;;;10.18;8.63;;;;;;;-142.25;100.00;58004.16;5053941;28;20481;-60
2021/09/05 09:07:16;;;;;;;11.88;8.70;;;;;;;-142.25;100.00;58004.16;5054694;28;20029;-64
2021/09/05 09:09:58;;;;;;;8.90;8.00;;;;;;;-142.25;100.00;58004.16;5052433;28;20033;-63
2021/09/05 09:12:49;;;;;;;12.93;8.73;;;;;;;-142.25;100.00;58004.16;5051643;28;20028;-64
2021/09/05 09:15:31;;;;;;;9.80;8.30;;;;;;;-142.25;100.00;58004.16;5052153;28;20507;-64
2021/09/05 09:18:04;;;;;;;9.27;7.68;;;;;;;-142.25;100.00;58004.16;5052783;28;20041;-55
2021/09/05 09:20:41;;;;;;;10.82;8.77;;;;;;;-142.25;100.00;58004.16;5051780;28;20032;-57
2021/09/05 09:23:11;;;;;;;10.35;7.82;;;;;;;-142.25;100.00;58004.16;5038803;28;20048;-59
2021/09/05 09:25:37;;;;;;;9.88;7.70;;;;;;;-142.25;100.00;58004.16;5052832;28;20745;-54
2021/09/05 09:28:21;;;;;;;10.90;8.82;;;;;;;-142.25;100.00;58004.16;5056601;28;20152;-58
2021/09/05 09:30:47;;;;;;;10.40;8.13;;;;;;;-142.25;100.00;58004.16;5055584;28;20063;-61
2021/09/05 09:33:20;;;;;;;8.65;7.85;;;;;;;-142.25;100.00;58004.16;5054848;28;20274;-59
2021/09/05 09:35:53;;;;;;;9.07;8.18;;;;;;;-142.25;100.00;58004.16;5053443;28;20055;-56
2021/09/05 09:38:20;;;;;;;13.98;9.68;;;;;;;-142.25;100.00;58004.16;5051367;28;20040;-61
2021/09/05 09:40:49;;;;;;;10.02;7.88;;;;;;;-142.25;100.00;58004.16;5051066;28;20622;-61
2021/09/05 09:43:16;;;;;;;9.65;7.75;;;;;;;-142.25;100.00;58004.16;5052989;28;20496;-62
2021/09/05 09:45:41;;;;;;;8.77;7.88;;;;;;;-142.25;100.00;58004.16;5052212;28;20045;-59
2021/09/05 09:48:08;;;;;;;9.73;7.97;;;;;;;-142.25;100.00;58004.16;5052449;28;20051;-59
2021/09/05 09:50:42;;;;;;;9.30;8.30;;;;;;;-142.25;100.00;58004.16;5050321;28;20040;-62
2021/09/05 09:53:08;;;;;;;9.68;8.52;;;;;;;-142.25;100.00;58004.16;5053604;28;20024;-68
2021/09/05 09:55:36;;;;;;;10.70;8.23;;;;;;;-142.25;100.00;58004.16;5052871;28;20067;-59
2021/09/05 09:58:02;;;;;;;9.95;7.38;;;;;;;-142.25;100.00;58004.16;5055127;28;20032;-64
2021/09/05 10:00:28;;;;;;;12.55;8.43;;;;;;;-142.25;100.00;58004.16;5053696;28;20039;-61
2021/09/05 10:02:55;;;;;;;9.73;8.15;;;;;;;-142.25;100.00;58004.16;5052840;28;20036;-59
2021/09/05 10:05:21;;;;;;;9.93;7.82;;;;;;;-142.25;100.00;58004.16;5052598;28;20061;-56
2021/09/05 10:07:48;;;;;;;12.27;8.63;;;;;;;-142.25;100.00;58004.16;5053617;28;20047;-56
2021/09/05 10:10:14;;;;;;;10.00;7.95;;;;;;;-142.25;100.00;58004.16;5053173;28;20065;-56
2021/09/05 10:12:40;;;;;;;8.93;8.02;;;;;;;-142.25;100.00;58004.16;5052104;28;20203;-60
2021/09/05 10:15:08;;;;;;;8.90;8.00;;;;;;;-142.25;100.00;58004.16;5054388;28;20040;-60
2021/09/05 10:17:36;;;;;;;11.60;8.15;;;;;;;-142.25;100.00;58004.16;5055912;28;20041;-59
2021/09/05 10:20:02;;;;;;;8.98;7.10;;;;;;;-142.25;100.00;58004.16;5056413;28;20029;-59
2021/09/05 10:22:31;;;;;;;11.70;8.05;;;;;;;-142.25;100.00;58004.16;5052992;28;20090;-60
2021/09/05 10:25:00;;;;;;;10.18;7.32;;;;;;;-142.25;100.00;58004.16;5054683;28;20115;-60
2021/09/05 10:27:31;;;;;;;11.73;7.43;;;;;;;-142.25;100.00;58004.16;5053300;28;20036;-66
2021/09/05 10:30:08;;;;;;;8.43;7.03;;;;;;;-142.25;100.00;58004.16;5053159;28;20029;-58
2021/09/05 10:32:57;;;;;;;14.45;10.43;;;;;;;-142.25;100.00;58004.16;5050878;28;20046;-65
2021/09/05 10:35:25;;;;;;;13.57;10.10;;;;;;;-142.25;100.00;58004.16;5051053;28;20115;-57
2021/09/05 10:38:10;;;;;;;11.50;8.57;;;;;;;-142.25;100.00;58004.16;5053626;28;20037;-55
2021/09/05 10:40:57;;;;;;;13.10;9.52;;;;;;;-142.25;100.00;58004.16;5052665;28;20114;-58
2021/09/05 10:43:43;;;;;;;12.27;8.30;;;;;;;-142.25;100.00;58004.16;5052854;28;20120;-61
2021/09/05 10:46:09;;;;;;;10.13;8.38;;;;;;;-142.25;100.00;58004.16;5052701;28;20477;-56
2021/09/05 10:48:44;;;;;;;10.77;8.13;;;;;;;-142.25;100.00;58004.16;5054357;28;20040;-60
2021/09/05 10:51:09;;;;;;;;;;;;;;;-142.25;100.00;58004.16;5053687;28;20143;-58
2021/09/05 10:53:56;;;;;;;9.02;6.95;;;;;;;-142.25;100.00;58004.16;5053594;28;20427;-58
2021/09/05 10:56:22;;;;;;;8.52;7.63;;;;;;;-142.25;100.00;58004.16;5053439;28;20055;-61
2021/09/05 10:58:51;;;;;;;10.57;8.18;;;;;;;-142.25;100.00;58004.16;5051950;28;20040;-60
2021/09/05 11:01:29;;;;;;;12.23;8.07;;;;;;;-142.25;100.00;58004.16;5052590;28;20059;-55
2021/09/05 11:04:10;;;;;;;7.88;7.07;;;;;;;-142.25;100.00;58004.16;5054831;28;20490;-58
2021/09/05 11:07:03;;;;;;;7.70;7.00;;;;;;;-142.25;100.00;58004.16;5055789;28;20040;-60